Time;durP1;ratioP1;P1;durP2;ratioP2;P2;SDS_P1;SDS_P2;PMS_P1;PMS_P2;Temp;Humidity;BMP_temperature;BMP_pressure;BME280_temperature;BME280_humidity;BME280_pressure;Samples;Min_cycle;Max_cycle;Signal;HPM_P1;HPM_P2
2022/03/22 00:01:15;;;;;;;16.73;9.60;;;;;;;7.74;40.32;101806.19;5030290;28;20654;-74
2022/03/22 00:03:46;;;;;;;19.17;12.10;;;;;;;7.80;40.98;101801.34;4995238;28;20231;-75
2022/03/22 00:06:13;;;;;;;19.90;9.80;;;;;;;7.81;40.14;101787.63;5029996;28;20234;-75
2022/03/22 00:08:41;;;;;;;23.63;12.95;;;;;;;7.67;40.72;101792.03;5030595;28;20196;-74
2022/03/22 00:11:08;;;;;;;22.45;12.02;;;;;;;7.67;41.44;101794.59;5030275;28;20196;-75
2022/03/22 00:13:37;;;;;;;23.00;11.98;;;;;;;7.54;41.36;101761.19;5030847;28;20257;-75
2022/03/22 00:16:04;;;;;;;21.00;9.95;;;;;;;7.80;41.36;101791.00;5008526;28;20294;-75
2022/03/22 00:18:31;;;;;;;25.80;12.10;;;;;;;7.68;40.80;101785.16;5032358;28;20690;-75
2022/03/22 00:20:58;;;;;;;20.90;11.02;;;;;;;7.63;41.41;101766.88;5034009;28;20261;-75
2022/03/22 00:23:25;;;;;;;24.88;11.02;;;;;;;7.76;41.13;101786.47;5034006;28;20215;-75
2022/03/22 00:25:51;;;;;;;18.17;10.95;;;;;;;7.87;41.05;101785.34;5033919;28;20660;-75
2022/03/22 00:28:19;;;;;;;24.45;11.82;;;;;;;7.72;41.76;101781.94;5033866;28;20211;-75
2022/03/22 00:30:47;;;;;;;23.33;10.25;;;;;;;7.66;41.42;101777.38;5033986;28;20296;-75
2022/03/22 00:33:14;;;;;;;20.27;10.83;;;;;;;7.76;43.06;101760.66;5034043;28;20679;-75
2022/03/22 00:35:42;;;;;;;22.30;12.00;;;;;;;7.76;41.94;101778.72;5033560;28;20196;-75
2022/03/22 00:38:11;;;;;;;27.50;12.10;;;;;;;7.73;42.31;101773.41;5014882;28;20286;-75
2022/03/22 00:40:39;;;;;;;19.00;11.02;;;;;;;7.73;42.27;101769.13;5033565;28;20287;-75
2022/03/22 00:43:06;;;;;;;23.30;11.07;;;;;;;7.75;42.12;101772.66;5033925;28;20204;-75
2022/03/22 00:45:34;;;;;;;26.48;12.50;;;;;;;7.78;42.26;101771.94;5033949;28;20203;-75
2022/03/22 00:48:05;;;;;;;20.00;11.65;;;;;;;7.67;42.06;101742.13;5033732;28;20220;-75
2022/03/22 00:50:35;;;;;;;17.08;9.07;;;;;;;7.82;41.70;101774.78;5033488;28;20204;-75
2022/03/22 00:53:04;;;;;;;19.90;11.45;;;;;;;7.89;42.07;101765.66;5033678;28;20201;-75
2022/03/22 00:55:31;;;;;;;24.23;11.32;;;;;;;7.73;41.83;101768.25;5032952;28;20195;-75
2022/03/22 00:57:57;;;;;;;21.48;11.05;;;;;;;7.69;42.32;101735.31;5034027;28;20212;-75
2022/03/22 01:00:26;;;;;;;23.80;11.25;;;;;;;7.72;41.98;101759.59;5033311;28;20734;-75
2022/03/22 01:02:58;;;;;;;17.67;11.45;;;;;;;7.70;41.79;101737.09;5033277;28;20703;-75
2022/03/22 01:05:28;;;;;;;24.77;11.45;;;;;;;7.73;42.10;101752.75;5033255;28;20208;-75
2022/03/22 01:07:57;;;;;;;17.88;9.40;;;;;;;7.79;42.08;101753.06;5033182;28;20282;-75
2022/03/22 01:10:26;;;;;;;20.77;10.80;;;;;;;7.73;41.85;101737.25;5032811;28;20266;-75
2022/03/22 01:12:53;;;;;;;22.40;11.07;;;;;;;7.86;42.36;101734.50;5032970;28;20656;-75
2022/03/22 01:15:23;;;;;;;25.35;10.85;;;;;;;7.74;42.19;101751.97;5033563;28;20275;-75
2022/03/22 01:17:54;;;;;;;15.43;8.68;;;;;;;7.74;42.57;101733.88;5033070;28;20204;-74
2022/03/22 01:20:22;;;;;;;16.58;9.80;;;;;;;7.80;42.26;101752.28;5032786;28;20204;-74
2022/03/22 01:22:51;;;;;;;17.58;9.80;;;;;;;7.65;42.88;101729.09;5033254;28;20251;-74
2022/03/22 01:25:20;;;;;;;20.40;10.30;;;;;;;7.72;41.96;101746.69;5032447;28;20258;-74
2022/03/22 01:27:51;;;;;;;15.68;10.02;;;;;;;7.71;42.37;101725.94;5032834;28;20646;-74
2022/03/22 01:30:20;;;;;;;22.70;12.10;;;;;;;7.62;43.31;101738.38;5032663;28;20232;-75
2022/03/22 01:32:47;;;;;;;32.63;12.93;;;;;;;7.56;43.20;101740.66;5032817;28;20291;-74
2022/03/22 01:35:14;;;;;;;20.20;10.65;;;;;;;7.54;43.09;101737.97;5032609;28;20207;-74
2022/03/22 01:37:41;;;;;;;26.33;12.43;;;;;;;7.58;44.10;101731.28;5033163;28;20912;-74
2022/03/22 01:40:11;;;;;;;15.93;8.60;;;;;;;7.41;44.43;101713.22;5032738;28;20212;-74
2022/03/22 01:42:39;;;;;;;26.73;13.18;;;;;;;7.30;44.23;101734.06;5032288;28;20659;-74
2022/03/22 01:45:07;;;;;;;20.77;11.77;;;;;;;7.16;44.20;101728.16;5032514;28;20707;-74
2022/03/22 01:47:35;;;;;;;22.90;11.70;;;;;;;7.26;44.39;101730.44;5032022;28;20766;-74
2022/03/22 01:50:02;;;;;;;29.90;11.68;;;;;;;7.19;44.90;101725.75;5032693;28;20699;-74
2022/03/22 01:52:29;;;;;;;22.08;11.00;;;;;;;7.21;46.05;101718.06;5032382;28;20192;-74
2022/03/22 01:54:56;;;;;;;18.50;10.00;;;;;;;7.06;45.04;101696.63;5032336;28;20238;-74
2022/03/22 01:57:25;;;;;;;25.20;12.73;;;;;;;7.09;45.51;101717.44;5014205;28;20283;-74
2022/03/22 01:59:53;;;;;;;28.27;12.98;;;;;;;6.90;45.84;101700.03;5032182;28;20279;-74
2022/03/22 02:07:50;;;;;;;24.02;10.60;;;;;;;7.05;45.68;101711.22;5032194;28;20273;-74
2022/03/22 02:10:17;;;;;;;21.42;11.82;;;;;;;7.09;46.22;101707.09;5032127;28;20204;-74
2022/03/22 02:12:46;;;;;;;22.90;10.20;;;;;;;7.14;44.95;101721.13;5031778;28;20223;-74
2022/03/22 02:15:14;;;;;;;22.90;9.97;;;;;;;7.10;46.04;101704.59;5025166;28;20613;-74
2022/03/22 02:17:45;;;;;;;20.02;10.80;;;;;;;6.75;46.31;101679.47;5031921;28;20204;-74
2022/03/22 02:20:13;;;;;;;25.60;13.17;;;;;;;6.80;46.17;101695.19;5031389;28;20211;-74
2022/03/22 02:22:45;;;;;;;26.13;12.73;;;;;;;6.92;47.00;101703.63;5031400;28;20656;-74
2022/03/22 02:25:15;;;;;;;22.10;11.23;;;;;;;6.87;46.17;101711.09;5031122;28;20238;-74
2022/03/22 02:27:44;;;;;;;25.13;12.97;;;;;;;6.90;46.92;101684.56;5024068;28;20230;-74
2022/03/22 02:30:12;;;;;;;19.83;10.60;;;;;;;7.09;47.05;101702.84;5031868;28;20677;-74
2022/03/22 02:32:38;;;;;;;20.85;11.77;;;;;;;6.93;46.65;101664.13;5032012;28;20280;-74
2022/03/22 02:35:06;;;;;;;18.95;10.75;;;;;;;7.10;45.85;101694.28;5031738;28;20212;-74
2022/03/22 02:37:33;;;;;;;21.67;11.48;;;;;;;7.23;46.24;101695.84;5030614;28;20211;-74
2022/03/22 02:40:00;;;;;;;23.73;11.43;;;;;;;7.33;46.51;101692.97;5031221;28;20261;-74
2022/03/22 02:42:29;;;;;;;18.00;10.50;;;;;;;7.37;46.09;101706.09;5031338;28;20250;-74
2022/03/22 02:44:56;;;;;;;17.92;10.55;;;;;;;7.44;46.50;101697.88;4996141;28;20204;-74
2022/03/22 02:47:23;;;;;;;18.98;9.30;;;;;;;7.46;45.91;101705.69;5031004;28;20322;-74
2022/03/22 02:49:50;;;;;;;15.10;8.82;;;;;;;7.41;45.32;101702.91;5030521;28;20200;-74
2022/03/22 02:52:17;;;;;;;19.90;10.55;;;;;;;7.41;46.02;101702.00;5030799;28;20257;-74
2022/03/22 02:54:44;;;;;;;20.33;11.30;;;;;;;7.47;45.74;101713.53;5030664;28;20254;-74
2022/03/22 02:57:10;;;;;;;22.50;11.23;;;;;;;7.46;45.64;101706.59;5030788;28;20229;-74
2022/03/22 02:59:38;;;;;;;26.95;12.48;;;;;;;7.56;46.39;101707.09;5030454;28;20265;-74
2022/03/22 03:02:05;;;;;;;25.08;11.38;;;;;;;7.47;45.87;101710.94;5030281;28;20229;-74
2022/03/22 03:04:32;;;;;;;26.02;11.80;;;;;;;7.47;46.23;101707.47;5030661;28;20728;-74
2022/03/22 03:06:59;;;;;;;22.73;11.60;;;;;;;7.34;47.09;101711.13;5030545;28;20697;-74
2022/03/22 03:09:26;;;;;;;24.57;13.17;;;;;;;7.05;46.63;101703.47;5030808;28;20682;-74
2022/03/22 03:11:53;;;;;;;20.65;10.43;;;;;;;7.14;47.26;101706.53;5012289;28;20208;-74
2022/03/22 03:17:05;;;;;;;27.70;12.23;;;;;;;7.13;46.73;101688.44;5030729;28;20827;-75
2022/03/22 03:19:32;;;;;;;22.77;11.38;;;;;;;7.19;46.86;101710.28;5030978;28;20648;-74
2022/03/22 03:21:59;;;;;;;17.17;10.23;;;;;;;7.13;46.98;101691.91;5030613;28;20572;-74
2022/03/22 03:24:26;;;;;;;21.48;11.07;;;;;;;7.21;47.29;101708.66;5030522;28;20306;-74
2022/03/22 03:26:53;;;;;;;16.70;11.27;;;;;;;7.19;47.55;101705.13;5030454;28;20196;-75
2022/03/22 03:29:19;;;;;;;22.55;11.07;;;;;;;7.14;47.19;101683.31;5029980;28;20200;-74
2022/03/22 03:31:47;;;;;;;18.20;10.57;;;;;;;7.00;47.76;101681.69;5030227;28;20278;-74
2022/03/22 03:34:15;;;;;;;19.70;11.07;;;;;;;7.21;47.71;101713.81;5011318;28;20215;-75
2022/03/22 03:36:42;;;;;;;19.23;10.98;;;;;;;7.38;46.63;101714.75;5030714;28;20204;-74
2022/03/22 03:39:10;;;;;;;20.08;9.43;;;;;;;7.38;47.77;101707.88;5028992;28;20204;-74
2022/03/22 03:41:56;;;;;;;27.05;11.38;;;;;;;7.25;47.40;101687.38;5030506;28;20630;-74
2022/03/22 03:47:08;;;;;;;32.58;12.20;;;;;;;6.78;47.28;101629.75;5015647;28;21015;-74
2022/03/22 03:49:38;;;;;;;20.77;9.88;;;;;;;7.39;47.09;101708.75;5034307;28;20278;-74
2022/03/22 03:52:06;;;;;;;20.05;10.77;;;;;;;7.27;47.41;101708.13;5032402;28;20283;-74
2022/03/22 03:54:33;;;;;;;18.85;10.95;;;;;;;7.35;47.28;101707.69;5034195;28;20310;-74
2022/03/22 03:57:00;;;;;;;22.67;11.60;;;;;;;7.39;47.06;101713.91;5035075;28;20199;-74
2022/03/22 03:59:27;;;;;;;24.23;11.88;;;;;;;7.09;47.83;101682.22;5034553;28;20257;-74
2022/03/22 04:01:54;;;;;;;19.98;10.38;;;;;;;7.14;47.86;101698.81;5034452;28;20223;-74
2022/03/22 04:04:21;;;;;;;22.02;10.07;;;;;;;7.26;48.05;101712.38;4999351;28;20208;-74
2022/03/22 04:06:49;;;;;;;21.95;10.65;;;;;;;6.94;47.71;101699.41;5034390;28;20207;-75
2022/03/22 04:09:17;;;;;;;23.33;10.77;;;;;;;6.98;48.91;101714.25;5034075;28;20227;-74
2022/03/22 04:11:44;;;;;;;23.73;11.35;;;;;;;6.79;48.23;101701.13;5033716;28;20612;-75
2022/03/22 04:14:11;;;;;;;21.08;11.65;;;;;;;6.72;49.55;101710.22;5034104;28;20205;-75
2022/03/22 04:16:38;;;;;;;20.50;10.43;;;;;;;6.62;49.00;101727.66;5033670;28;20200;-74
2022/03/22 04:19:07;;;;;;;18.70;11.03;;;;;;;6.59;49.32;101730.97;5033235;28;20204;-74
2022/03/22 04:21:35;;;;;;;20.10;10.40;;;;;;;6.67;49.46;101705.63;5022448;28;20250;-74
2022/03/22 04:24:05;;;;;;;19.27;9.93;;;;;;;7.03;59.42;101723.13;5034224;28;20568;-75
2022/03/22 04:26:33;;;;;;;16.98;8.00;;;;;;;6.94;52.03;101717.47;5033949;28;20200;-74
2022/03/22 04:34:38;;;;;;;17.75;9.93;;;;;;;6.74;52.83;101681.97;5033749;28;20683;-74
2022/03/22 04:37:06;;;;;;;23.50;11.93;;;;;;;6.86;52.74;101710.97;5033798;28;20207;-73
2022/03/22 04:39:35;;;;;;;20.33;10.33;;;;;;;6.75;52.22;101706.91;5033565;28;20232;-74
2022/03/22 04:42:02;;;;;;;20.63;11.05;;;;;;;6.65;52.40;101713.25;5033467;28;20318;-73
2022/03/22 04:44:29;;;;;;;21.17;9.00;;;;;;;6.66;52.59;101703.84;5014859;28;20192;-73
2022/03/22 04:46:57;;;;;;;26.43;13.47;;;;;;;6.65;52.36;101712.34;5033735;28;20623;-74
2022/03/22 04:49:25;;;;;;;24.38;12.50;;;;;;;6.64;52.71;101693.44;5033694;28;20700;-74
2022/03/22 04:57:30;;;;;;;25.30;12.00;;;;;;;7.19;51.49;101718.00;5011371;28;20576;-74
2022/03/22 04:59:57;;;;;;;25.58;12.45;;;;;;;7.44;51.46;101713.38;5010556;28;20205;-76
2022/03/22 05:02:24;;;;;;;21.75;12.13;;;;;;;7.36;51.75;101691.44;5011151;28;20264;-76
2022/03/22 05:04:51;;;;;;;21.30;12.60;;;;;;;7.38;50.55;101718.19;5010595;28;20197;-74
2022/03/22 05:07:17;;;;;;;33.75;16.75;;;;;;;7.38;50.64;101722.50;5010581;28;20205;-74
2022/03/22 05:09:45;;;;;;;24.35;12.73;;;;;;;7.43;51.02;101721.91;5010433;28;20209;-72
2022/03/22 05:12:13;;;;;;;27.85;14.07;;;;;;;7.14;51.28;101716.88;5010915;28;20711;-72
2022/03/22 05:14:41;;;;;;;31.77;14.05;;;;;;;6.88;51.91;101715.41;5011005;28;20229;-73
2022/03/22 05:17:11;;;;;;;20.05;11.77;;;;;;;6.86;51.89;101706.72;5010792;28;20296;-73
2022/03/22 05:19:39;;;;;;;23.80;12.73;;;;;;;6.71;52.09;101723.91;5010566;28;20204;-72
2022/03/22 05:22:06;;;;;;;25.00;11.93;;;;;;;6.75;52.78;101719.81;5010855;28;20292;-73
2022/03/22 05:24:33;;;;;;;23.65;12.18;;;;;;;6.75;52.25;101709.50;5010304;28;20205;-72
2022/03/22 05:27:02;;;;;;;21.87;11.13;;;;;;;6.90;52.52;101708.66;4999671;28;20284;-72
2022/03/22 05:29:29;;;;;;;26.02;11.05;;;;;;;6.80;52.54;101692.59;5010328;28;20221;-72
2022/03/22 05:31:56;;;;;;;23.13;11.68;;;;;;;6.76;51.95;101709.59;5010345;28;20711;-72
2022/03/22 05:34:22;;;;;;;30.95;13.20;;;;;;;6.75;53.15;101700.06;5031319;28;20218;-73
2022/03/22 05:36:49;;;;;;;37.40;16.27;;;;;;;7.11;52.54;101710.66;5032485;28;20212;-73
2022/03/22 05:39:16;;;;;;;35.22;15.75;;;;;;;7.18;52.68;101712.75;5032639;28;20204;-73
2022/03/22 05:41:43;;;;;;;35.22;16.77;;;;;;;7.19;52.55;101694.81;5031734;28;20286;-73
2022/03/22 05:44:12;;;;;;;28.67;13.95;;;;;;;6.98;51.58;101652.38;5032134;28;20210;-73
2022/03/22 05:46:40;;;;;;;21.10;9.70;;;;;;;6.78;52.21;101624.59;5032231;28;20204;-73
2022/03/22 05:49:08;;;;;;;35.10;13.43;;;;;;;7.29;52.51;101703.91;5032389;28;20247;-73
2022/03/22 05:51:36;;;;;;;23.40;11.82;;;;;;;7.38;52.23;101700.13;5032453;28;20208;-73
2022/03/22 05:54:03;;;;;;;33.40;13.82;;;;;;;7.46;52.25;101700.53;4997907;28;20295;-72
2022/03/22 05:56:30;;;;;;;25.83;12.40;;;;;;;7.41;51.81;101708.06;5031772;28;20196;-72
2022/03/22 05:58:59;;;;;;;24.50;12.88;;;;;;;7.49;51.67;101709.31;5032361;28;20204;-72
2022/03/22 06:01:27;;;;;;;27.63;12.52;;;;;;;7.68;52.44;101710.31;5032278;28;20224;-72
2022/03/22 06:03:54;;;;;;;26.98;11.98;;;;;;;7.64;51.50;101691.19;5031357;28;20200;-72
2022/03/22 06:06:21;;;;;;;24.55;13.75;;;;;;;7.87;50.81;101707.88;5032077;28;20204;-72
2022/03/22 06:08:49;;;;;;;22.75;12.05;;;;;;;7.94;51.22;101712.56;5031756;28;20232;-73
2022/03/22 06:11:17;;;;;;;25.00;12.57;;;;;;;8.11;52.33;101716.00;5030628;28;20189;-73
2022/03/22 06:13:44;;;;;;;27.55;13.20;;;;;;;8.13;50.57;101698.88;4995841;28;20299;-73
2022/03/22 06:16:10;;;;;;;28.85;15.25;;;;;;;8.34;51.38;101713.81;5031370;28;20266;-73
2022/03/22 06:18:38;;;;;;;19.63;11.02;;;;;;;8.32;51.00;101718.00;5031790;28;20617;-73
2022/03/22 06:21:05;;;;;;;25.83;13.20;;;;;;;8.25;51.17;101704.66;5032304;28;20197;-74
2022/03/22 06:23:32;;;;;;;23.63;11.77;;;;;;;8.28;50.71;101703.16;5031847;28;20306;-73
2022/03/22 06:26:01;;;;;;;20.02;11.10;;;;;;;8.50;51.09;101723.19;5031782;28;20231;-75
2022/03/22 06:28:27;;;;;;;26.67;12.30;;;;;;;8.68;50.81;101725.78;4997576;28;20951;-75
2022/03/22 06:30:54;;;;;;;19.95;10.55;;;;;;;8.67;50.99;101719.72;5031339;28;20212;-74
2022/03/22 06:33:22;;;;;;;21.98;11.02;;;;;;;8.56;50.69;101707.97;5032209;28;20287;-74
2022/03/22 06:35:51;;;;;;;32.30;13.13;;;;;;;8.59;51.09;101681.41;5032057;28;20243;-75
2022/03/22 06:38:18;;;;;;;26.85;12.30;;;;;;;8.80;50.30;101708.28;5032071;28;20269;-74
2022/03/22 06:40:46;;;;;;;29.95;12.82;;;;;;;8.62;50.80;101671.22;5031192;28;20208;-74
2022/03/22 06:43:15;;;;;;;23.83;12.10;;;;;;;9.12;50.38;101718.47;5031877;28;20286;-74
2022/03/22 06:45:43;;;;;;;23.38;12.05;;;;;;;9.09;50.40;101726.09;5028808;28;20596;-76
2022/03/22 06:48:11;;;;;;;28.70;13.80;;;;;;;8.84;50.18;101677.50;5031217;28;20224;-73
2022/03/22 06:50:40;;;;;;;37.90;13.18;;;;;;;9.09;50.74;101701.91;5031135;28;20207;-74
2022/03/22 06:53:09;;;;;;;21.52;10.88;;;;;;;8.70;50.39;101628.50;5030975;28;20204;-73
2022/03/22 06:55:37;;;;;;;31.15;12.85;;;;;;;9.33;51.26;101711.69;5030955;28;20200;-74
2022/03/22 06:58:05;;;;;;;30.05;13.25;;;;;;;9.59;51.43;101718.06;5030865;28;20270;-72
2022/03/22 07:00:32;;;;;;;21.95;11.18;;;;;;;9.73;51.09;101710.91;4997495;28;20212;-74
2022/03/22 07:03:00;;;;;;;22.67;12.73;;;;;;;10.05;50.14;101715.78;5032997;28;20239;-74
2022/03/22 07:05:27;;;;;;;27.02;12.77;;;;;;;10.44;49.66;101712.34;5031159;28;20250;-75
2022/03/22 07:07:56;;;;;;;25.92;13.52;;;;;;;10.74;49.31;101711.78;5030777;28;20196;-75
2022/03/22 07:10:24;;;;;;;18.85;10.65;;;;;;;10.86;48.96;101707.09;4996572;28;20204;-75
2022/03/22 07:12:53;;;;;;;22.33;11.90;;;;;;;10.97;48.79;101711.00;5031009;28;20207;-75
2022/03/22 07:15:23;;;;;;;20.27;10.80;;;;;;;11.22;48.19;101711.13;5030853;28;20284;-75
2022/03/22 07:17:52;;;;;;;27.38;12.00;;;;;;;11.52;47.79;101714.03;5031001;28;20203;-75
2022/03/22 07:20:19;;;;;;;22.02;11.82;;;;;;;11.58;47.93;101711.63;5030821;28;20791;-76
2022/03/22 07:22:46;;;;;;;27.08;13.15;;;;;;;11.80;48.06;101702.94;5030360;28;20195;-75
2022/03/22 07:25:13;;;;;;;32.47;13.00;;;;;;;11.30;47.64;101639.63;5030807;28;20251;-74
2022/03/22 07:27:41;;;;;;;28.55;12.63;;;;;;;11.67;47.86;101704.16;5030736;28;20208;-75
2022/03/22 07:30:10;;;;;;;20.50;10.68;;;;;;;11.45;48.50;101694.69;5011744;28;20212;-74
2022/03/22 07:32:37;;;;;;;20.75;11.23;;;;;;;11.34;50.44;101683.03;4964582;28;20288;-74
2022/03/22 07:35:04;;;;;;;30.73;13.02;;;;;;;11.19;49.58;101692.84;5030496;28;20196;-74
2022/03/22 07:37:32;;;;;;;22.13;11.98;;;;;;;10.90;49.94;101683.03;5030230;28;20204;-75
2022/03/22 07:39:59;;;;;;;27.48;12.40;;;;;;;10.66;50.12;101669.09;5030339;28;20679;-75
2022/03/22 07:42:29;;;;;;;23.50;11.45;;;;;;;10.55;50.23;101680.75;5030572;28;20201;-75
2022/03/22 07:45:00;;;;;;;28.15;11.05;;;;;;;10.40;50.41;101676.72;4996535;28;20200;-74
2022/03/22 07:47:28;;;;;;;41.60;15.45;;;;;;;10.68;50.99;101670.03;5030296;28;20595;-75
2022/03/22 07:55:24;;;;;;;26.70;13.30;;;;;;;10.23;51.95;101679.44;5030469;28;20200;-74
2022/03/22 07:57:51;;;;;;;24.88;11.13;;;;;;;10.14;52.10;101679.91;5030000;28;20287;-74
2022/03/22 08:00:20;;;;;;;21.48;10.55;;;;;;;10.33;52.70;101668.63;5030382;28;20266;-74
2022/03/22 08:02:57;;;;;;;24.00;10.18;;;;;;;10.47;52.02;101653.63;5030075;28;20238;-74
2022/03/22 08:05:25;;;;;;;18.67;11.18;;;;;;;10.57;52.04;101647.97;5030050;28;20191;-75
2022/03/22 08:07:53;;;;;;;21.92;12.60;;;;;;;11.04;51.42;101673.19;5030156;28;20196;-75
2022/03/22 08:10:20;;;;;;;20.83;11.70;;;;;;;10.88;50.71;101633.66;5029835;28;20235;-75
2022/03/22 08:12:48;;;;;;;20.17;10.52;;;;;;;10.75;50.78;101640.91;5030156;28;20192;-75
2022/03/22 08:15:15;;;;;;;27.70;13.32;;;;;;;10.67;51.50;101638.03;5011286;28;20211;-73
2022/03/22 08:17:44;;;;;;;23.63;11.93;;;;;;;10.87;51.12;101656.97;5030139;28;20204;-72
2022/03/22 08:20:12;;;;;;;31.40;13.32;;;;;;;10.92;51.25;101651.13;5030005;28;20200;-72
2022/03/22 08:22:50;;;;;;;26.92;12.60;;;;;;;11.16;50.62;101619.16;5030000;28;20208;-74
2022/03/22 08:25:19;;;;;;;19.45;11.18;;;;;;;11.32;50.29;101627.56;5029816;28;20202;-73
2022/03/22 08:27:45;;;;;;;20.75;10.43;;;;;;;11.27;49.90;101634.28;5029937;28;20434;-74
2022/03/22 08:30:13;;;;;;;20.27;11.68;;;;;;;11.24;50.30;101647.16;5029711;28;20719;-73
2022/03/22 08:32:43;;;;;;;22.92;11.73;;;;;;;11.38;50.13;101643.34;4995676;28;20583;-73
2022/03/22 08:35:10;;;;;;;25.85;12.60;;;;;;;11.37;49.53;101613.03;5031095;28;20676;-73
2022/03/22 08:37:37;;;;;;;24.45;13.10;;;;;;;11.23;49.31;101609.06;5033675;28;20201;-74
2022/03/22 08:40:04;;;;;;;32.55;13.48;;;;;;;11.64;49.14;101640.81;5033501;28;20201;-73
2022/03/22 08:42:31;;;;;;;25.83;12.77;;;;;;;11.86;48.76;101627.78;5033625;28;20224;-74
2022/03/22 08:44:59;;;;;;;31.95;15.52;;;;;;;12.03;48.72;101634.44;5033642;28;20192;-75
2022/03/22 08:47:26;;;;;;;37.45;15.82;;;;;;;11.73;48.71;101625.59;5015082;28;20196;-74
2022/03/22 08:49:55;;;;;;;32.33;14.73;;;;;;;11.92;48.87;101617.59;5033249;28;20740;-73
2022/03/22 08:52:21;;;;;;;21.73;12.45;;;;;;;12.08;49.60;101619.88;5033464;28;20695;-73
2022/03/22 08:54:48;;;;;;;21.70;10.80;;;;;;;12.53;50.76;101624.81;5033265;28;20204;-74
2022/03/22 08:57:15;;;;;;;23.83;12.48;;;;;;;12.82;50.79;101597.97;4998668;28;20200;-72
2022/03/22 08:59:42;;;;;;;20.98;11.05;;;;;;;12.79;49.45;101611.78;5033264;28;20207;-72
2022/03/22 09:02:09;;;;;;;21.50;12.20;;;;;;;12.36;50.13;101606.94;5033112;28;20228;-71
2022/03/22 09:07:22;;;;;;;24.73;11.73;;;;;;;12.70;50.25;101605.41;5003703;28;20203;-72
2022/03/22 09:09:49;;;;;;;22.05;11.45;;;;;;;12.87;49.33;101604.22;5014379;28;20231;-72
2022/03/22 09:12:15;;;;;;;21.80;11.63;;;;;;;13.10;49.63;101574.53;5033131;28;20196;-72
2022/03/22 09:14:42;;;;;;;25.92;13.25;;;;;;;13.52;48.79;101597.44;5033170;28;20199;-72
2022/03/22 09:17:09;;;;;;;19.60;8.15;;;;;;;13.67;49.14;101597.81;5033008;28;20211;-72
2022/03/22 09:19:36;;;;;;;8.55;5.35;;;;;;;13.63;49.87;101575.13;5032882;28;20196;-72
2022/03/22 09:22:05;;;;;;;11.65;5.60;;;;;;;13.82;49.83;101583.47;5032839;28;20725;-72
2022/03/22 09:24:34;;;;;;;10.98;5.80;;;;;;;14.01;49.45;101566.56;5032915;28;20584;-72
2022/03/22 09:27:01;;;;;;;18.27;6.50;;;;;;;14.35;48.05;101574.38;5032849;28;20282;-72
2022/03/22 09:29:28;;;;;;;15.00;5.53;;;;;;;14.26;48.10;101573.28;5032540;28;20754;-75
2022/03/22 09:31:55;;;;;;;12.40;5.10;;;;;;;13.85;48.00;101564.41;5033215;28;20196;-73
2022/03/22 09:34:24;;;;;;;13.95;5.80;;;;;;;13.95;48.54;101568.16;5032279;28;20582;-73
2022/03/22 09:36:51;;;;;;;14.73;6.10;;;;;;;14.18;47.83;101583.50;5032616;28;20228;-74
2022/03/22 09:39:19;;;;;;;13.63;5.20;;;;;;;14.01;47.54;101545.72;5032364;28;20601;-73
2022/03/22 09:41:49;;;;;;;12.70;3.90;;;;;;;14.01;46.78;101576.13;5032338;28;20196;-73
2022/03/22 09:44:19;;;;;;;14.95;5.95;;;;;;;13.91;46.40;101518.50;5032381;28;20208;-73
2022/03/22 09:46:48;;;;;;;11.05;5.60;;;;;;;14.25;46.33;101551.50;5032320;28;20223;-73
2022/03/22 09:49:16;;;;;;;7.80;5.68;;;;;;;14.30;46.66;101528.13;4997650;28;20239;-73
2022/03/22 09:51:47;;;;;;;17.20;6.10;;;;;;;14.61;46.77;101546.28;5032293;28;20192;-73
2022/03/22 09:54:15;;;;;;;23.02;5.00;;;;;;;14.50;46.13;101544.28;5032258;28;20207;-74
2022/03/22 09:56:42;;;;;;;7.70;5.10;;;;;;;14.54;46.35;101546.09;5032043;28;20236;-73
2022/03/22 09:59:11;;;;;;;15.15;6.70;;;;;;;14.65;45.74;101511.56;5031922;28;20212;-73
2022/03/22 10:01:38;;;;;;;13.27;6.20;;;;;;;14.49;45.64;101526.84;5029402;28;20228;-73
2022/03/22 10:04:07;;;;;;;8.73;4.80;;;;;;;14.52;45.53;101522.56;5032110;28;20680;-73
2022/03/22 10:06:35;;;;;;;10.65;4.60;;;;;;;14.80;45.31;101518.84;5032139;28;20248;-74
2022/03/22 10:09:07;;;;;;;9.75;5.32;;;;;;;14.88;44.22;101498.97;4997200;28;20196;-74
2022/03/22 10:11:39;;;;;;;20.98;6.38;;;;;;;14.98;44.25;101482.66;5031919;28;20680;-73
2022/03/22 10:14:07;;;;;;;18.00;4.57;;;;;;;15.14;43.72;101497.75;5032020;28;20207;-74
2022/03/22 10:16:45;;;;;;;19.90;5.80;;;;;;;15.65;43.52;101486.50;5031790;28;20207;-74
2022/03/22 10:19:18;;;;;;;11.75;4.20;;;;;;;15.74;41.97;101497.09;5013156;28;20202;-75
2022/03/22 10:21:45;;;;;;;9.05;4.60;;;;;;;15.80;42.05;101481.53;5032169;28;20196;-70
2022/03/22 10:24:14;;;;;;;13.30;4.97;;;;;;;15.69;43.18;101467.41;5031605;28;20199;-71
2022/03/22 10:26:41;;;;;;;11.38;4.28;;;;;;;15.30;40.65;101471.03;5031494;28;20199;-72
2022/03/22 10:29:11;;;;;;;11.40;4.57;;;;;;;15.51;40.36;101472.31;5031348;28;20223;-73
2022/03/22 10:31:40;;;;;;;38.50;5.00;;;;;;;15.43;38.72;101474.75;5031667;28;20211;-72
2022/03/22 10:34:08;;;;;;;10.43;3.97;;;;;;;15.23;38.73;101445.66;5031254;28;20279;-74
2022/03/22 10:36:36;;;;;;;9.52;3.28;;;;;;;15.42;38.65;101419.84;5031314;28;20223;-73
2022/03/22 10:39:05;;;;;;;24.98;5.93;;;;;;;15.91;39.37;101455.56;5031529;28;20196;-74
2022/03/22 10:41:35;;;;;;;12.20;4.93;;;;;;;15.80;39.72;101461.47;5031336;28;20207;-74
2022/03/22 10:44:06;;;;;;;11.63;4.70;;;;;;;15.96;38.45;101440.78;5031389;28;20507;-73
2022/03/22 10:46:34;;;;;;;6.97;4.05;;;;;;;15.68;38.44;101413.34;5031159;28;20208;-74
2022/03/22 10:49:10;;;;;;;16.73;4.40;;;;;;;15.72;39.00;101420.38;5031097;28;20196;-74
2022/03/22 10:51:46;;;;;;;28.25;6.15;;;;;;;15.68;39.43;101460.41;5028947;28;20291;-74
2022/03/22 10:54:16;;;;;;;11.73;5.72;;;;;;;15.71;40.41;101429.94;5031121;28;20202;-76
2022/03/22 10:56:46;;;;;;;11.20;5.45;;;;;;;15.93;39.78;101406.72;5031114;28;20193;-75
2022/03/22 10:59:14;;;;;;;8.88;4.60;;;;;;;15.76;39.01;101422.19;5030578;28;20822;-75
2022/03/22 11:01:43;;;;;;;12.60;3.75;;;;;;;15.60;36.15;101412.31;5030689;28;20245;-73
2022/03/22 11:04:15;;;;;;;16.50;4.05;;;;;;;15.51;34.96;101399.13;5030992;28;20201;-74
2022/03/22 11:06:42;;;;;;;16.92;4.10;;;;;;;15.63;34.76;101420.22;5031024;28;20204;-73
2022/03/22 11:09:10;;;;;;;7.28;3.35;;;;;;;15.51;35.72;101407.84;5030921;28;20588;-74
2022/03/22 11:11:37;;;;;;;12.02;3.67;;;;;;;15.55;36.34;101395.72;5030830;28;20278;-75
2022/03/22 11:14:04;;;;;;;6.55;3.97;;;;;;;15.76;36.45;101416.97;5030664;28;20690;-75
2022/03/22 11:16:34;;;;;;;5.82;3.05;;;;;;;15.87;34.89;101418.00;5030743;28;20200;-75
2022/03/22 11:19:02;;;;;;;8.00;4.15;;;;;;;15.82;34.61;101410.06;5030992;28;20625;-75
2022/03/22 11:21:30;;;;;;;15.65;4.75;;;;;;;15.45;35.06;101310.09;5012377;28;20207;-75
2022/03/22 11:24:04;;;;;;;18.88;4.75;;;;;;;16.06;34.15;101404.31;5030741;28;20208;-75
2022/03/22 11:26:31;;;;;;;26.77;4.03;;;;;;;15.72;33.64;101352.38;5030634;28;20203;-75
2022/03/22 11:28:59;;;;;;;18.65;3.83;;;;;;;15.77;34.33;101342.84;5030436;28;20203;-75
2022/03/22 11:31:27;;;;;;;11.70;4.63;;;;;;;15.99;34.21;101368.44;5030864;28;20297;-75
2022/03/22 11:34:09;;;;;;;9.23;2.75;;;;;;;16.05;33.97;101375.53;5030503;28;20208;-75
2022/03/22 11:36:46;;;;;;;18.65;4.38;;;;;;;16.19;34.26;101361.75;5030494;28;20196;-75
2022/03/22 11:42:15;;;;;;;28.35;3.95;;;;;;;15.95;33.84;101345.72;5030442;28;20199;-76
2022/03/22 11:42:17;;;;;;;64.53;6.75;;;;;;;16.25;33.42;101380.16;5030399;28;20283;-75
2022/03/22 11:44:56;;;;;;;13.57;3.17;;;;;;;16.04;32.90;101356.31;5030448;28;20694;-75
2022/03/22 11:47:23;;;;;;;28.52;4.03;;;;;;;16.10;33.31;101385.19;5030537;28;20222;-77
2022/03/22 11:49:52;;;;;;;28.67;3.60;;;;;;;16.20;33.95;101386.16;5030200;28;20224;-76
2022/03/22 11:52:22;;;;;;;29.00;3.70;;;;;;;15.91;33.62;101309.91;5028203;28;20204;-75